Time;durP1;ratioP1;P1;durP2;ratioP2;P2;SDS_P1;SDS_P2;PMS_P1;PMS_P2;Temp;Humidity;BMP_temperature;BMP_pressure;BME280_temperature;BME280_humidity;BME280_pressure;Samples;Min_cycle;Max_cycle;Signal;HPM_P1;HPM_P2
2024/01/31 00:01:46;;;;;;;20.63;5.20;;;8.80;95.90;;;;;;5093639;28;20223;-83
2024/01/31 00:04:12;;;;;;;23.27;5.10;;;8.90;97.30;;;;;;5093556;28;20164;-83
2024/01/31 00:06:38;;;;;;;19.70;4.63;;;8.70;99.70;;;;;;5094935;28;20191;-83
2024/01/31 00:09:04;;;;;;;20.58;4.55;;;8.70;99.90;;;;;;5095051;28;20157;-83
2024/01/31 00:11:29;;;;;;;21.00;4.97;;;8.70;99.90;;;;;;5093482;28;20169;-83
2024/01/31 00:13:56;;;;;;;20.87;5.07;;;8.70;99.90;;;;;;5093052;28;20568;-83
2024/01/31 00:16:22;;;;;;;22.10;4.97;;;8.70;99.90;;;;;;5093556;28;20520;-83
2024/01/31 00:18:50;;;;;;;20.83;4.80;;;8.70;99.90;;;;;;5094900;28;20169;-83
2024/01/31 00:21:16;;;;;;;24.00;5.93;;;8.70;99.90;;;;;;5094071;28;20464;-81
2024/01/31 00:23:42;;;;;;;21.85;5.60;;;8.60;99.90;;;;;;5081969;28;20703;-81
2024/01/31 00:26:07;;;;;;;24.00;6.67;;;8.60;99.90;;;;;;5079412;28;20177;-81
2024/01/31 00:28:33;;;;;;;25.17;5.83;;;8.60;99.90;;;;;;5087251;28;20209;-82
2024/01/31 00:30:59;;;;;;;20.97;5.70;;;8.60;99.90;;;;;;5094808;28;20172;-83
2024/01/31 00:33:24;;;;;;;19.47;5.10;;;8.60;99.90;;;;;;5094646;28;20237;-83
2024/01/31 00:35:50;;;;;;;27.37;5.67;;;8.60;99.90;;;;;;5094140;28;20204;-83
2024/01/31 00:38:15;;;;;;;19.80;5.53;;;8.60;99.90;;;;;;5094639;28;20192;-82
2024/01/31 00:40:41;;;;;;;22.30;5.83;;;8.60;99.90;;;;;;5091648;28;20204;-81
2024/01/31 00:43:09;;;;;;;23.63;5.83;;;8.60;99.90;;;;;;5084714;28;20179;-81
2024/01/31 00:45:35;;;;;;;23.30;5.40;;;8.50;99.90;;;;;;5082961;28;20171;-83
2024/01/31 00:48:01;;;;;;;23.17;5.90;;;8.60;99.90;;;;;;5092203;28;20183;-81
2024/01/31 00:50:26;;;;;;;18.40;4.63;;;8.60;99.90;;;;;;5090360;28;20236;-83
2024/01/31 00:52:52;;;;;;;20.60;5.57;;;8.60;99.90;;;;;;5093242;28;20189;-83
2024/01/31 00:55:18;;;;;;;22.97;5.30;;;8.60;99.90;;;;;;5091195;28;20169;-82
2024/01/31 00:57:44;;;;;;;21.33;5.80;;;8.50;99.90;;;;;;5091745;28;20258;-83
2024/01/31 01:00:11;;;;;;;26.13;7.78;;;8.50;99.90;;;;;;5091133;28;20689;-83
2024/01/31 01:02:40;;;;;;;21.35;5.68;;;8.50;99.90;;;;;;5093352;28;20172;-83
2024/01/31 01:05:07;;;;;;;22.35;6.40;;;8.50;99.90;;;;;;5093452;28;20157;-83
2024/01/31 01:07:33;;;;;;;25.27;7.50;;;8.50;99.90;;;;;;5093062;28;20184;-83
2024/01/31 01:09:58;;;;;;;25.20;7.80;;;8.50;99.90;;;;;;5093469;28;20187;-82
2024/01/31 01:12:24;;;;;;;22.87;6.73;;;8.50;99.90;;;;;;5092613;28;20220;-82
2024/01/31 01:14:50;;;;;;;22.30;7.07;;;8.40;99.90;;;;;;5091010;28;20169;-83
2024/01/31 01:17:15;;;;;;;21.40;6.50;;;8.50;99.90;;;;;;5091262;28;20180;-83
2024/01/31 01:19:41;;;;;;;23.47;7.20;;;8.50;99.90;;;;;;5086057;28;20167;-82
2024/01/31 01:22:06;;;;;;;27.53;7.53;;;8.50;99.90;;;;;;5085781;28;20192;-81
2024/01/31 01:24:32;;;;;;;25.10;7.60;;;8.50;99.90;;;;;;5088181;28;20161;-81
2024/01/31 01:26:58;;;;;;;22.30;6.50;;;8.50;99.90;;;;;;5091074;28;20191;-82
2024/01/31 01:29:23;;;;;;;24.20;7.20;;;8.40;99.90;;;;;;5092664;28;20165;-82
2024/01/31 01:31:49;;;;;;;24.10;7.60;;;8.50;99.90;;;;;;5092147;28;20176;-82
2024/01/31 01:34:15;;;;;;;25.07;8.40;;;8.40;99.90;;;;;;5091810;28;20169;-82
2024/01/31 01:36:40;;;;;;;23.63;8.67;;;8.40;99.90;;;;;;5086743;28;20185;-81
2024/01/31 01:39:06;;;;;;;29.40;8.37;;;8.50;99.90;;;;;;5081941;28;20694;-81
2024/01/31 01:41:32;;;;;;;26.87;6.67;;;8.40;99.90;;;;;;5084751;28;20218;-82
2024/01/31 01:43:57;;;;;;;25.17;8.10;;;8.40;99.90;;;;;;5086510;28;20157;-81
2024/01/31 01:46:24;;;;;;;26.23;8.63;;;8.50;99.90;;;;;;5084706;28;20248;-81
2024/01/31 01:48:52;;;;;;;27.05;9.07;;;8.50;99.90;;;;;;5083919;28;20180;-82
2024/01/31 01:51:20;;;;;;;26.58;8.68;;;8.30;99.90;;;;;;5087106;28;20175;-81
2024/01/31 01:53:47;;;;;;;32.38;8.13;;;8.30;99.90;;;;;;5086961;28;20259;-82
2024/01/31 01:56:14;;;;;;;28.40;8.82;;;8.40;99.90;;;;;;5084581;28;20638;-81
2024/01/31 01:58:41;;;;;;;27.60;9.48;;;8.40;99.90;;;;;;5082893;28;20207;-81
2024/01/31 02:01:08;;;;;;;24.65;7.82;;;8.30;99.90;;;;;;5085075;28;20195;-81
2024/01/31 02:03:35;;;;;;;23.63;7.25;;;8.30;99.90;;;;;;5085998;28;20629;-82
2024/01/31 02:06:01;;;;;;;24.10;8.18;;;8.40;99.90;;;;;;5081849;28;20202;-82
2024/01/31 02:08:27;;;;;;;23.20;7.88;;;8.30;99.90;;;;;;5079686;28;20176;-81
2024/01/31 02:10:53;;;;;;;27.67;8.45;;;8.40;99.90;;;;;;5080506;28;20176;-81
2024/01/31 02:13:18;;;;;;;27.33;9.10;;;8.40;99.90;;;;;;5079736;28;20580;-81
2024/01/31 02:15:57;;;;;;;25.40;8.40;;;8.40;99.90;;;;;;5079725;28;20684;-81
2024/01/31 02:18:24;;;;;;;27.33;8.75;;;8.40;99.90;;;;;;5079958;28;20539;-81
2024/01/31 02:20:50;;;;;;;24.95;9.00;;;8.40;99.90;;;;;;5079855;28;20214;-81
2024/01/31 02:23:16;;;;;;;24.20;7.60;;;8.40;99.90;;;;;;5079300;28;20165;-81
2024/01/31 02:25:42;;;;;;;28.40;8.73;;;8.40;99.90;;;;;;5080281;28;20164;-81
2024/01/31 02:28:08;;;;;;;23.63;8.02;;;8.40;99.90;;;;;;5081663;28;20506;-81
2024/01/31 02:30:34;;;;;;;24.83;9.30;;;8.30;99.90;;;;;;5079938;28;20587;-81
2024/01/31 02:32:59;;;;;;;25.10;9.57;;;8.30;99.90;;;;;;5078807;28;20406;-82
2024/01/31 02:35:25;;;;;;;27.13;8.90;;;8.30;99.90;;;;;;5078667;28;20646;-82
2024/01/31 02:37:51;;;;;;;27.50;10.13;;;8.30;99.90;;;;;;5078848;28;20210;-82
2024/01/31 02:40:16;;;;;;;27.50;8.70;;;8.20;99.90;;;;;;5078801;28;20211;-81
2024/01/31 02:42:43;;;;;;;28.00;9.83;;;8.20;99.90;;;;;;5078724;28;20156;-82
2024/01/31 02:45:09;;;;;;;28.00;10.13;;;8.20;99.90;;;;;;5078751;28;20490;-81
2024/01/31 02:47:35;;;;;;;32.67;12.60;;;8.30;99.90;;;;;;5078824;28;20188;-81
2024/01/31 02:50:01;;;;;;;32.07;11.07;;;8.30;99.90;;;;;;5078280;28;20161;-81
2024/01/31 02:52:27;;;;;;;28.02;11.23;;;8.30;99.90;;;;;;5076234;28;20403;-81
2024/01/31 02:54:53;;;;;;;30.70;10.57;;;8.20;99.90;;;;;;5077319;28;20575;-82
2024/01/31 02:57:19;;;;;;;33.50;11.80;;;8.20;99.90;;;;;;5077115;28;20187;-81
2024/01/31 02:59:45;;;;;;;30.65;10.95;;;8.20;99.90;;;;;;5077743;28;20549;-81
2024/01/31 03:02:10;;;;;;;30.80;12.33;;;8.20;99.90;;;;;;5075880;28;20196;-81
2024/01/31 03:04:36;;;;;;;34.80;12.43;;;8.10;99.90;;;;;;5077534;28;20411;-81
2024/01/31 03:07:02;;;;;;;33.23;12.30;;;8.10;99.90;;;;;;5076469;28;20181;-81
2024/01/31 03:09:28;;;;;;;38.43;12.37;;;8.10;99.90;;;;;;5078065;28;20165;-81
2024/01/31 03:11:54;;;;;;;27.53;10.60;;;8.10;99.90;;;;;;5077325;28;20426;-81
2024/01/31 03:14:20;;;;;;;32.60;12.07;;;8.10;99.90;;;;;;5077553;28;20248;-81
2024/01/31 03:16:45;;;;;;;31.02;12.80;;;8.10;99.90;;;;;;5076349;28;20193;-81
2024/01/31 03:19:11;;;;;;;30.83;11.23;;;8.10;99.90;;;;;;5077075;28;20238;-81
2024/01/31 03:21:37;;;;;;;30.80;11.77;;;8.20;99.90;;;;;;5075938;28;20285;-81
2024/01/31 03:24:03;;;;;;;31.03;12.63;;;8.20;99.90;;;;;;5077793;28;20403;-82
2024/01/31 03:26:29;;;;;;;32.53;11.63;;;8.20;99.90;;;;;;5078025;28;20689;-81
2024/01/31 03:28:54;;;;;;;29.13;12.93;;;8.30;99.90;;;;;;5077676;28;20157;-81
2024/01/31 03:31:20;;;;;;;31.13;12.13;;;8.30;99.90;;;;;;5078105;28;20634;-81
2024/01/31 03:33:46;;;;;;;30.33;12.37;;;8.20;99.90;;;;;;5078188;28;20172;-81
2024/01/31 03:36:12;;;;;;;32.90;12.30;;;8.20;99.90;;;;;;5081626;28;20190;-81
2024/01/31 03:38:39;;;;;;;33.45;12.38;;;8.20;99.90;;;;;;5078956;28;20443;-81
2024/01/31 03:41:06;;;;;;;36.35;11.95;;;8.10;99.90;;;;;;5078902;28;20195;-81
2024/01/31 03:43:31;;;;;;;36.13;11.43;;;8.20;99.90;;;;;;5076898;28;20654;-81
2024/01/31 03:45:57;;;;;;;34.27;12.57;;;8.10;99.90;;;;;;5077763;28;20170;-81
2024/01/31 03:48:23;;;;;;;31.97;12.60;;;8.10;99.90;;;;;;5077155;28;20190;-81
2024/01/31 03:50:48;;;;;;;29.73;11.40;;;8.10;99.90;;;;;;5078011;28;20657;-81
2024/01/31 03:53:14;;;;;;;33.30;12.90;;;8.10;99.90;;;;;;5078082;28;20661;-81
2024/01/31 03:55:40;;;;;;;29.80;11.37;;;8.10;99.90;;;;;;5077774;28;20472;-81
2024/01/31 03:58:06;;;;;;;31.38;12.48;;;8.10;99.90;;;;;;5077520;28;20185;-82
2024/01/31 04:00:31;;;;;;;34.70;13.87;;;8.10;99.90;;;;;;5077848;28;20180;-82
2024/01/31 04:02:57;;;;;;;33.23;13.10;;;8.10;99.90;;;;;;5077712;28;20234;-81
2024/01/31 04:05:23;;;;;;;30.13;12.07;;;8.10;99.90;;;;;;5077786;28;20187;-81
2024/01/31 04:07:48;;;;;;;31.10;12.63;;;8.00;99.90;;;;;;5077986;28;20195;-81
2024/01/31 04:10:14;;;;;;;36.27;13.07;;;8.10;99.90;;;;;;5078298;28;20173;-81
2024/01/31 04:12:40;;;;;;;37.07;12.83;;;8.00;99.90;;;;;;5076982;28;20641;-81
2024/01/31 04:15:06;;;;;;;30.40;13.20;;;8.00;99.90;;;;;;5077841;28;20218;-81
2024/01/31 04:17:32;;;;;;;31.75;12.55;;;8.00;99.90;;;;;;5075909;28;20193;-81
2024/01/31 04:19:57;;;;;;;35.90;13.00;;;8.00;99.90;;;;;;5075574;28;20176;-81
2024/01/31 04:22:23;;;;;;;33.10;13.53;;;8.00;99.90;;;;;;5077643;28;20168;-81
2024/01/31 04:24:49;;;;;;;36.50;14.73;;;8.00;99.90;;;;;;5076488;28;20211;-81
2024/01/31 04:27:16;;;;;;;37.50;15.10;;;7.90;99.90;;;;;;5077979;28;20545;-81
2024/01/31 04:29:42;;;;;;;34.45;12.45;;;7.90;99.90;;;;;;5076575;28;20694;-82
2024/01/31 04:32:07;;;;;;;36.38;13.90;;;7.80;99.90;;;;;;5079086;28;20164;-81
2024/01/31 04:34:36;;;;;;;31.53;12.87;;;7.80;99.90;;;;;;5079637;28;20195;-81
2024/01/31 04:37:02;;;;;;;34.92;13.82;;;7.80;99.90;;;;;;5080485;28;20192;-81
2024/01/31 04:39:28;;;;;;;33.37;14.00;;;7.80;99.90;;;;;;5080898;28;20164;-81
2024/01/31 04:41:56;;;;;;;34.00;13.43;;;7.80;99.90;;;;;;5080669;28;20222;-81
2024/01/31 04:44:22;;;;;;;39.00;14.98;;;7.70;99.90;;;;;;5088938;28;20164;-82
2024/01/31 04:46:49;;;;;;;31.70;14.10;;;7.70;99.90;;;;;;5085386;28;20220;-81
2024/01/31 04:49:17;;;;;;;31.60;13.23;;;7.70;99.90;;;;;;5083440;28;20399;-83
2024/01/31 04:51:43;;;;;;;35.72;13.88;;;7.70;99.90;;;;;;5089689;28;20173;-81
2024/01/31 04:54:09;;;;;;;33.00;13.57;;;7.70;99.90;;;;;;5080856;28;20168;-81
2024/01/31 04:56:36;;;;;;;38.87;15.30;;;7.70;99.90;;;;;;5080316;28;20511;-81
2024/01/31 04:59:02;;;;;;;39.40;15.05;;;7.70;99.90;;;;;;5079140;28;20211;-81
2024/01/31 05:01:28;;;;;;;36.65;14.68;;;7.70;99.90;;;;;;5080489;28;20303;-81
2024/01/31 05:03:57;;;;;;;29.83;13.57;;;7.80;99.90;;;;;;5080088;28;20221;-81
2024/01/31 05:06:23;;;;;;;37.13;14.10;;;7.70;99.90;;;;;;5079696;28;20168;-81
2024/01/31 05:08:49;;;;;;;36.15;14.45;;;7.70;99.90;;;;;;5078241;28;20602;-81
2024/01/31 05:11:14;;;;;;;38.53;14.43;;;7.80;99.90;;;;;;5079581;28;20196;-81
2024/01/31 05:13:40;;;;;;;36.93;14.73;;;7.70;99.90;;;;;;5080016;28;20179;-81
2024/01/31 05:16:08;;;;;;;34.00;14.70;;;7.80;99.90;;;;;;5080020;28;20172;-82
2024/01/31 05:18:34;;;;;;;34.13;14.15;;;7.80;99.90;;;;;;5079744;28;20263;-81
2024/01/31 05:21:00;;;;;;;37.43;15.10;;;7.80;99.90;;;;;;5080703;28;20216;-81
2024/01/31 05:23:26;;;;;;;38.33;15.90;;;7.80;99.90;;;;;;5079315;28;20434;-81
2024/01/31 05:25:52;;;;;;;36.57;15.87;;;7.80;99.90;;;;;;5080063;28;20159;-81
2024/01/31 05:28:18;;;;;;;35.43;15.13;;;7.80;99.90;;;;;;5080273;28;20271;-81
2024/01/31 05:30:44;;;;;;;30.63;12.30;;;7.80;99.90;;;;;;5080688;28;20168;-81
2024/01/31 05:33:10;;;;;;;31.87;11.37;;;7.80;99.90;;;;;;5080284;28;20399;-81
2024/01/31 05:35:36;;;;;;;29.92;10.50;;;7.80;99.90;;;;;;5080494;28;20222;-81
2024/01/31 05:38:03;;;;;;;24.83;8.90;;;7.80;99.90;;;;;;5079741;28;20181;-81
2024/01/31 05:40:32;;;;;;;32.92;7.18;;;7.80;99.90;;;;;;5077748;28;20196;-81
2024/01/31 05:42:58;;;;;;;26.17;6.72;;;7.70;99.90;;;;;;5079176;28;20168;-81
2024/01/31 05:45:24;;;;;;;24.40;6.77;;;7.80;99.90;;;;;;5081058;28;20164;-83
2024/01/31 05:47:50;;;;;;;27.02;7.00;;;7.80;99.90;;;;;;5079452;28;20943;-81
2024/01/31 05:50:16;;;;;;;23.87;7.97;;;7.80;99.90;;;;;;5079605;28;20171;-81
2024/01/31 05:52:41;;;;;;;24.60;7.20;;;7.70;99.90;;;;;;5079629;28;20168;-82
2024/01/31 05:55:07;;;;;;;25.73;7.60;;;7.70;99.90;;;;;;5079192;28;20399;-81
2024/01/31 05:57:33;;;;;;;24.40;7.37;;;7.60;99.90;;;;;;5078113;28;20423;-81
2024/01/31 05:59:59;;;;;;;25.53;8.07;;;7.60;99.90;;;;;;5078709;28;20954;-81
2024/01/31 06:02:24;;;;;;;30.47;8.60;;;7.60;99.90;;;;;;5078899;28;20165;-81
2024/01/31 06:04:50;;;;;;;25.63;7.57;;;7.70;99.90;;;;;;5078121;28;20172;-82
2024/01/31 06:07:16;;;;;;;21.60;6.83;;;7.70;99.90;;;;;;5079064;28;20191;-81
2024/01/31 06:09:42;;;;;;;23.47;7.70;;;7.70;99.90;;;;;;5079109;28;20157;-82
2024/01/31 06:12:08;;;;;;;23.90;6.68;;;7.70;99.90;;;;;;5079439;28;20776;-81
2024/01/31 06:14:37;;;;;;;36.07;9.47;;;7.60;99.90;;;;;;5079272;28;20161;-81
2024/01/31 06:17:06;;;;;;;23.55;8.60;;;7.50;99.90;;;;;;5079505;28;20204;-81
2024/01/31 06:19:31;;;;;;;24.95;8.15;;;7.40;99.90;;;;;;5078106;28;20218;-81
2024/01/31 06:21:57;;;;;;;25.40;8.50;;;7.40;99.90;;;;;;5078003;28;20188;-81
2024/01/31 06:24:22;;;;;;;24.87;7.93;;;7.40;99.90;;;;;;5077633;28;20207;-81
2024/01/31 06:26:48;;;;;;;27.23;8.63;;;7.50;99.90;;;;;;5078991;28;20185;-81
2024/01/31 06:29:18;;;;;;;26.20;8.17;;;7.40;99.90;;;;;;5079122;28;20164;-81
2024/01/31 06:31:47;;;;;;;26.52;7.45;;;7.40;99.90;;;;;;5076682;28;20545;-81
2024/01/31 06:34:16;;;;;;;23.05;6.60;;;7.40;99.90;;;;;;5076975;28;20165;-81
2024/01/31 06:36:43;;;;;;;21.58;6.28;;;7.40;99.90;;;;;;5077930;28;20287;-81
2024/01/31 06:39:09;;;;;;;24.55;5.82;;;7.40;99.90;;;;;;5077973;28;20171;-81
2024/01/31 06:41:36;;;;;;;19.13;4.60;;;7.30;99.90;;;;;;5077411;28;20263;-81
2024/01/31 06:44:03;;;;;;;20.40;4.68;;;7.20;99.90;;;;;;5077983;28;20566;-81
2024/01/31 06:46:29;;;;;;;23.48;5.28;;;7.20;99.90;;;;;;5076181;28;20196;-81
2024/01/31 06:48:54;;;;;;;19.55;4.50;;;7.20;99.90;;;;;;5077690;28;20527;-81
2024/01/31 06:51:20;;;;;;;19.37;4.33;;;7.10;99.90;;;;;;5077420;28;20191;-82
2024/01/31 06:53:46;;;;;;;22.23;4.10;;;7.20;99.90;;;;;;5076999;28;20168;-81
2024/01/31 06:56:17;;;;;;;19.13;3.65;;;7.20;99.90;;;;;;5079443;28;20168;-83
2024/01/31 06:58:45;;;;;;;20.92;4.65;;;7.20;99.90;;;;;;5089834;28;20195;-83
2024/01/31 07:01:22;;;;;;;21.08;4.88;;;7.20;99.90;;;;;;5091301;28;20203;-83
2024/01/31 07:03:48;;;;;;;20.83;4.20;;;7.20;99.90;;;;;;5091428;28;20249;-83
2024/01/31 07:06:15;;;;;;;19.43;4.73;;;7.10;99.90;;;;;;5091010;28;20192;-82
2024/01/31 07:08:41;;;;;;;20.80;5.13;;;7.10;99.90;;;;;;5091870;28;20207;-83
2024/01/31 07:11:08;;;;;;;30.52;4.88;;;7.10;99.90;;;;;;5086197;28;20176;-82
2024/01/31 07:13:39;;;;;;;24.30;4.00;;;7.10;99.90;;;;;;5090238;28;20180;-83
2024/01/31 07:16:09;;;;;;;19.48;3.88;;;7.10;99.90;;;;;;5092732;28;20214;-83
2024/01/31 07:18:45;;;;;;;19.13;4.03;;;7.10;99.90;;;;;;5093213;28;20172;-83
2024/01/31 07:21:22;;;;;;;22.58;5.03;;;7.20;99.90;;;;;;5093874;28;20176;-83
2024/01/31 07:23:48;;;;;;;18.80;3.42;;;7.10;99.90;;;;;;5093125;28;20136;-82
2024/01/31 07:26:26;;;;;;;21.80;4.53;;;7.10;99.90;;;;;;5091962;28;20174;-84
2024/01/31 07:28:55;;;;;;;18.40;3.83;;;7.20;99.90;;;;;;5092326;28;20212;-84
2024/01/31 07:31:21;;;;;;;21.35;5.38;;;7.10;99.90;;;;;;5092368;28;20165;-81
2024/01/31 07:33:47;;;;;;;32.72;5.57;;;7.10;99.90;;;;;;5091448;28;20213;-83
2024/01/31 07:36:13;;;;;;;26.33;6.17;;;7.10;99.90;;;;;;5091487;28;20168;-83
2024/01/31 07:38:43;;;;;;;24.52;4.50;;;7.10;99.90;;;;;;5089534;28;20200;-82
2024/01/31 07:41:10;;;;;;;18.90;3.83;;;7.10;99.90;;;;;;5084484;28;20180;-83
2024/01/31 07:43:36;;;;;;;22.65;4.90;;;7.20;99.90;;;;;;5085400;28;20192;-83
2024/01/31 07:46:03;;;;;;;21.30;4.37;;;7.20;99.90;;;;;;5080685;28;20168;-82
2024/01/31 07:48:29;;;;;;;20.13;4.47;;;7.20;99.90;;;;;;5079569;28;20446;-82
2024/01/31 07:50:55;;;;;;;20.25;4.45;;;7.20;99.90;;;;;;5080181;28;20165;-82
2024/01/31 07:53:21;;;;;;;20.30;5.20;;;7.20;99.90;;;;;;5083805;28;20182;-83
2024/01/31 07:55:46;;;;;;;19.30;4.23;;;7.20;99.90;;;;;;5080921;28;20169;-82
2024/01/31 07:58:12;;;;;;;20.33;4.87;;;7.20;99.90;;;;;;5081098;28;20220;-82
2024/01/31 08:00:38;;;;;;;24.63;4.80;;;7.20;99.90;;;;;;5081445;28;20196;-82
2024/01/31 08:03:04;;;;;;;19.87;4.97;;;7.30;99.90;;;;;;5081937;28;20165;-82
2024/01/31 08:05:29;;;;;;;20.90;5.30;;;7.30;99.90;;;;;;5081686;28;20214;-82
2024/01/31 08:07:55;;;;;;;20.10;5.50;;;7.30;99.90;;;;;;5084302;28;20440;-82
2024/01/31 08:10:21;;;;;;;23.57;7.37;;;7.30;99.90;;;;;;5084397;28;20620;-81
2024/01/31 08:12:48;;;;;;;27.13;7.77;;;7.40;99.90;;;;;;5083562;28;20169;-81
2024/01/31 08:15:13;;;;;;;23.08;6.82;;;7.40;99.90;;;;;;5085012;28;20752;-82
2024/01/31 08:17:39;;;;;;;25.17;7.60;;;7.40;99.90;;;;;;5085445;28;20216;-82
2024/01/31 08:20:06;;;;;;;27.73;9.37;;;7.40;99.90;;;;;;5083624;28;20200;-82
2024/01/31 08:22:35;;;;;;;30.13;9.60;;;7.40;99.90;;;;;;5084333;28;20674;-82
2024/01/31 08:25:00;;;;;;;29.27;11.85;;;7.40;99.90;;;;;;5083825;28;20653;-82
2024/01/31 08:27:26;;;;;;;32.10;11.30;;;7.50;99.90;;;;;;5083763;28;20200;-82
2024/01/31 08:29:52;;;;;;;37.20;14.17;;;7.50;99.90;;;;;;5083671;28;20546;-82
2024/01/31 08:32:18;;;;;;;37.27;14.60;;;7.50;99.90;;;;;;5085313;28;20668;-82
2024/01/31 08:34:44;;;;;;;40.85;15.68;;;7.50;99.90;;;;;;5085745;28;20410;-82
2024/01/31 08:37:10;;;;;;;41.53;16.27;;;7.60;99.90;;;;;;5086915;28;20730;-82
2024/01/31 08:39:35;;;;;;;43.20;15.70;;;7.60;99.90;;;;;;5084714;28;20171;-82
2024/01/31 08:42:01;;;;;;;46.00;17.67;;;7.60;99.90;;;;;;5086168;28;20435;-82
2024/01/31 08:44:27;;;;;;;40.37;17.67;;;7.70;99.90;;;;;;5086878;28;20181;-82
2024/01/31 08:46:53;;;;;;;41.73;18.33;;;7.80;99.90;;;;;;5085389;28;20191;-82
2024/01/31 08:49:20;;;;;;;40.80;16.73;;;7.80;99.90;;;;;;5086636;28;20173;-82
2024/01/31 08:51:47;;;;;;;43.03;18.20;;;7.80;99.90;;;;;;5084514;28;20164;-82
2024/01/31 08:54:13;;;;;;;38.60;17.45;;;7.80;99.90;;;;;;5084608;28;20199;-81
2024/01/31 08:56:39;;;;;;;41.50;15.40;;;7.80;99.90;;;;;;5084930;28;20184;-82
2024/01/31 08:59:04;;;;;;;39.57;15.13;;;7.90;99.90;;;;;;5084682;28;20418;-82
2024/01/31 09:01:30;;;;;;;36.10;14.60;;;7.90;99.90;;;;;;5083589;28;20439;-82
2024/01/31 09:03:56;;;;;;;39.83;16.20;;;7.90;99.90;;;;;;5086166;28;20214;-82
2024/01/31 09:06:22;;;;;;;43.40;13.70;;;7.90;99.90;;;;;;5085776;28;20170;-82
2024/01/31 09:08:48;;;;;;;34.33;12.95;;;8.00;99.90;;;;;;5084436;28;20180;-81
2024/01/31 09:11:14;;;;;;;33.05;13.48;;;8.00;99.90;;;;;;5085781;28;20165;-83
2024/01/31 09:13:41;;;;;;;43.33;14.27;;;7.90;99.90;;;;;;5085536;28;20534;-82
2024/01/31 09:16:08;;;;;;;36.03;14.32;;;7.90;99.90;;;;;;5085413;28;20164;-82
2024/01/31 09:18:33;;;;;;;30.95;12.52;;;7.90;99.90;;;;;;5084312;28;20629;-82
2024/01/31 09:21:00;;;;;;;33.63;12.33;;;7.90;99.90;;;;;;5085151;28;20184;-82
2024/01/31 09:23:26;;;;;;;33.17;11.73;;;7.90;99.90;;;;;;5085429;28;20448;-82
2024/01/31 09:25:51;;;;;;;32.47;11.30;;;7.90;99.90;;;;;;5085736;28;20164;-81
2024/01/31 09:28:19;;;;;;;34.50;13.10;;;7.90;99.90;;;;;;5085553;28;20221;-82
2024/01/31 09:30:44;;;;;;;34.28;13.75;;;7.90;99.90;;;;;;5085426;28;20380;-81
2024/01/31 09:33:10;;;;;;;32.10;12.07;;;8.00;99.90;;;;;;5086113;28;20187;-82
2024/01/31 09:35:36;;;;;;;34.53;13.00;;;8.00;99.90;;;;;;5085448;28;20172;-82
2024/01/31 09:38:02;;;;;;;34.60;13.43;;;8.00;99.90;;;;;;5086104;28;20426;-82
2024/01/31 09:40:28;;;;;;;34.65;13.98;;;8.10;99.90;;;;;;5085131;28;20238;-83
2024/01/31 09:42:55;;;;;;;38.83;14.13;;;8.10;99.90;;;;;;5084619;28;20160;-81
2024/01/31 09:45:22;;;;;;;40.90;13.43;;;8.10;99.90;;;;;;5085380;28;20406;-81
2024/01/31 09:47:49;;;;;;;31.83;12.77;;;8.00;99.90;;;;;;5083708;28;20255;-81
2024/01/31 09:50:15;;;;;;;37.08;14.35;;;8.00;99.90;;;;;;5085404;28;20179;-81
2024/01/31 09:52:41;;;;;;;35.10;13.20;;;8.00;99.90;;;;;;5083604;28;20700;-81
2024/01/31 09:55:11;;;;;;;37.72;15.25;;;8.00;99.90;;;;;;5083173;28;20195;-82
2024/01/31 09:57:39;;;;;;;37.50;12.27;;;8.10;99.90;;;;;;5083334;28;20181;-82
2024/01/31 10:00:05;;;;;;;32.72;11.65;;;8.10;99.90;;;;;;5083725;28;20193;-82
2024/01/31 10:02:32;;;;;;;33.08;12.10;;;8.10;99.90;;;;;;5084492;28;20160;-82
2024/01/31 10:04:57;;;;;;;34.33;12.52;;;8.10;99.90;;;;;;5082475;28;20199;-81
2024/01/31 10:07:33;;;;;;;29.07;10.97;;;8.20;99.90;;;;;;5082470;28;20180;-82
2024/01/31 10:09:59;;;;;;;29.83;10.25;;;8.20;99.90;;;;;;5081618;28;20545;-82
2024/01/31 10:12:26;;;;;;;26.25;9.82;;;8.20;99.90;;;;;;5082118;28;20164;-81
2024/01/31 10:14:52;;;;;;;24.25;8.30;;;8.30;99.90;;;;;;5083074;28;20153;-81
2024/01/31 10:17:20;;;;;;;26.73;8.93;;;8.40;99.90;;;;;;5080975;28;20532;-81
2024/01/31 10:19:45;;;;;;;22.02;6.93;;;8.30;99.90;;;;;;5080973;28;20190;-81
2024/01/31 10:22:11;;;;;;;22.60;7.30;;;8.30;99.90;;;;;;5081263;28;20267;-82
2024/01/31 10:24:38;;;;;;;25.57;8.20;;;8.40;99.90;;;;;;5081884;28;20403;-81
2024/01/31 10:27:08;;;;;;;22.73;6.90;;;8.50;99.90;;;;;;5080571;28;20415;-83
2024/01/31 10:29:37;;;;;;;21.20;6.47;;;8.40;99.90;;;;;;5081110;28;20156;-81
2024/01/31 10:32:05;;;;;;;20.73;5.85;;;8.40;99.90;;;;;;5081585;28;20160;-81
2024/01/31 10:34:32;;;;;;;23.92;6.05;;;8.40;99.90;;;;;;5082749;28;20194;-82
2024/01/31 10:36:59;;;;;;;20.02;5.00;;;8.40;99.90;;;;;;5082186;28;20204;-81
2024/01/31 10:39:25;;;;;;;21.35;5.75;;;8.20;99.90;;;;;;5082393;28;20255;-81
2024/01/31 10:41:50;;;;;;;21.47;5.50;;;8.30;99.90;;;;;;5082222;28;20204;-81
2024/01/31 10:44:16;;;;;;;21.60;5.20;;;8.40;99.90;;;;;;5082519;28;20168;-82
2024/01/31 10:46:45;;;;;;;21.50;4.90;;;8.50;99.90;;;;;;5082337;28;20204;-81
2024/01/31 10:49:16;;;;;;;19.98;4.68;;;8.60;99.90;;;;;;5083566;28;20399;-81
2024/01/31 10:51:46;;;;;;;19.52;4.60;;;8.70;99.90;;;;;;5080571;28;20218;-82
2024/01/31 10:54:13;;;;;;;20.33;4.82;;;8.80;99.90;;;;;;5081719;28;20161;-82
2024/01/31 10:56:39;;;;;;;20.70;5.65;;;8.70;94.20;;;;;;5082479;28;20214;-82
2024/01/31 10:59:08;;;;;;;18.80;4.60;;;8.80;90.50;;;;;;5081820;28;20189;-81
2024/01/31 11:01:34;;;;;;;26.08;5.38;;;8.80;84.10;;;;;;5080286;28;20195;-81
2024/01/31 11:04:03;;;;;;;19.10;4.30;;;8.80;79.90;;;;;;5079692;28;20232;-82
2024/01/31 11:06:43;;;;;;;20.80;5.05;;;8.80;67.00;;;;;;5079947;28;20600;-81
2024/01/31 11:09:25;;;;;;;18.38;4.60;;;8.90;72.50;;;;;;5082141;28;20194;-81
2024/01/31 11:12:05;;;;;;;18.85;3.78;;;9.00;66.90;;;;;;5081439;28;20148;-82
2024/01/31 11:14:33;;;;;;;18.70;4.95;;;9.10;61.20;;;;;;5082159;28;20168;-83
2024/01/31 11:17:23;;;;;;;17.92;3.90;;;9.00;42.10;;;;;;5083320;28;20185;-82
2024/01/31 11:19:54;;;;;;;25.83;4.50;;;8.80;22.90;;;;;;5082962;28;20149;-81
2024/01/31 11:22:20;;;;;;;20.00;5.72;;;8.80;22.60;;;;;;5082764;28;20180;-83
2024/01/31 11:24:58;;;;;;;20.40;5.67;;;9.00;28.80;;;;;;5081977;28;20205;-81
2024/01/31 11:27:24;;;;;;;19.20;3.78;;;9.00;19.00;;;;;;5078874;28;20418;-82
2024/01/31 11:29:52;;;;;;;18.15;4.47;;;9.10;14.70;;;;;;5079859;28;20177;-81
2024/01/31 11:32:21;;;;;;;16.92;3.63;;;9.20;4.30;;;;;;5082332;28;20148;-81
2024/01/31 11:35:01;;;;;;;17.45;3.92;;;9.10;1.10;;;;;;5083521;28;20645;-82
2024/01/31 11:37:27;;;;;;;21.75;4.40;;;9.10;1.00;;;;;;5085611;28;20538;-83
2024/01/31 11:39:53;;;;;;;18.58;3.83;;;9.20;1.00;;;;;;5093068;28;20172;-82
2024/01/31 11:42:20;;;;;;;20.40;4.00;;;9.20;1.00;;;;;;5099778;28;20196;-83
2024/01/31 11:44:46;;;;;;;19.60;4.38;;;9.20;1.00;;;;;;5098560;28;20486;-81
2024/01/31 11:47:12;;;;;;;17.10;3.20;;;9.30;1.00;;;;;;5099772;28;20184;-82
2024/01/31 11:49:38;;;;;;;17.80;3.03;;;9.30;1.00;;;;;;5099783;28;20413;-82
2024/01/31 11:52:04;;;;;;;17.70;3.50;;;9.20;1.00;;;;;;5098945;28;20167;-83
2024/01/31 11:54:30;;;;;;;17.98;3.63;;;9.30;1.00;;;;;;5098966;28;20217;-83
2024/01/31 11:56:56;;;;;;;17.08;3.42;;;9.30;1.00;;;;;;5097942;28;20223;-83
2024/01/31 11:59:22;;;;;;;18.15;3.78;;;9.30;1.00;;;;;;5097827;28;20616;-83
2024/01/31 12:01:48;;;;;;;18.50;4.27;;;9.30;1.00;;;;;;5097015;28;20196;-83
2024/01/31 12:04:14;;;;;;;18.67;4.40;;;9.30;1.00;;;;;;5096606;28;20403;-83
2024/01/31 12:06:39;;;;;;;20.00;4.40;;;9.30;1.00;;;;;;5097029;28;20430;-84
2024/01/31 12:09:05;;;;;;;18.50;4.57;;;9.20;1.00;;;;;;5096735;28;20191;-83
2024/01/31 12:11:34;;;;;;;23.70;5.40;;;9.30;1.00;;;;;;5096324;28;20717;-83
2024/01/31 12:14:00;;;;;;;21.75;4.63;;;9.30;1.00;;;;;;5096955;28;20161;-83
2024/01/31 12:16:25;;;;;;;19.67;5.00;;;9.20;1.00;;;;;;5097225;28;20253;-83
2024/01/31 12:19:00;;;;;;;19.07;4.20;;;9.20;1.00;;;;;;5097606;28;20181;-83
2024/01/31 12:21:26;;;;;;;18.38;3.90;;;9.10;1.00;;;;;;5097040;28;20669;-84
2024/01/31 12:23:52;;;;;;;19.17;4.10;;;9.10;1.00;;;;;;5096773;28;20174;-83
2024/01/31 12:26:18;;;;;;;17.73;3.80;;;9.20;1.00;;;;;;5096018;28;20231;-82
2024/01/31 12:28:54;;;;;;;17.50;4.22;;;9.20;1.00;;;;;;5096179;28;20402;-83
2024/01/31 12:31:21;;;;;;;18.08;4.38;;;9.10;1.00;;;;;;5096581;28;20545;-84
2024/01/31 12:33:47;;;;;;;17.40;3.95;;;9.10;1.00;;;;;;5096377;28;20175;-83
2024/01/31 12:36:13;;;;;;;19.00;4.67;;;9.10;1.00;;;;;;5094796;28;20618;-83
2024/01/31 12:38:39;;;;;;;19.35;4.15;;;9.10;1.00;;;;;;5098130;28;20252;-84
2024/01/31 12:41:05;;;;;;;18.30;4.30;;;9.10;1.00;;;;;;5096095;28;20191;-84